This is the latest recevied weather packets stored in our database for station/object TG5ALY-15. If no packets are shown the sender has not sent any weather packets the latest 10 day(s).
| Time | Temp. | Humidity | Pressure | Rain* | Wind** | Luminosity | Snow |
|---|---|---|---|---|---|---|---|
| 1777957209 | 13.33° C | 90% | 1031.7 hPa | 0 mm | - | 0 W/m² | - |
| 1777956008 | 13.33° C | 90% | 1031.7 hPa | 0 mm | - | 0 W/m² | - |
| 1777954806 | 13.33° C | 86% | 1031.7 hPa | 0 mm | - | 0 W/m² | - |
| 1777940385 | 16.67° C | 80% | 1029.2 hPa | 0 mm | - | 3 W/m² | - |
| 1777934376 | 19.44° C | 68% | 1028.3 hPa | 0 mm | - | 90 W/m² | - |
| 1777924766 | 20° C | 71% | 1029.2 hPa | 0 mm | - | 844 W/m² | - |
| 1777923562 | 19.44° C | 69% | 1029.5 hPa | 0 mm | - | 923 W/m² | - |
| 1777922360 | 20° C | 68% | 1029.9 hPa | 0 mm | - | 544 W/m² | - |
| 1777919953 | 19.44° C | 70% | 1030.4 hPa | 0 mm | - | 644 W/m² | - |
| 1777917552 | 18.89° C | 69% | 1030.8 hPa | 0 mm | - | 849 W/m² | - |
| 1777916347 | 18.89° C | 71% | 1031.3 hPa | 0 mm | - | 380 W/m² | - |
| 1777915145 | 18.33° C | 72% | 1031.3 hPa | 0 mm | - | 228 W/m² | - |
| 1777913944 | 17.22° C | 78% | 1031.7 hPa | 0 mm | - | 216 W/m² | - |
| 1777912741 | 17.22° C | 76% | 1031.7 hPa | 0 mm | - | 143 W/m² | - |
| 1777911538 | 17.22° C | 75% | 1031.7 hPa | 0 mm | - | 216 W/m² | - |
| 1777909132 | 17.78° C | 75% | 1031.7 hPa | 0 mm | - | 606 W/m² | - |
| 1777906729 | 17.22° C | 75% | 1031.7 hPa | 0 mm | - | 214 W/m² | - |
| 1777905527 | 16.67° C | 77% | 1031.3 hPa | 0 mm | - | 353 W/m² | - |
| 1777904327 | 17.78° C | 76% | 1031.7 hPa | 0 mm | - | 277 W/m² | - |
| 1777903125 | 16.67° C | 79% | 1031.3 hPa | 0 mm | - | 345 W/m² | - |
| 1777901925 | 16.11° C | 81% | 1031.3 hPa | 0 mm | - | 260 W/m² | - |
| 1777900720 | 13.33° C | 85% | 1030.8 hPa | 0 mm | - | 150 W/m² | - |
| 1777899520 | 10.56° C | 93% | 1030.8 hPa | 0 mm | - | 79 W/m² | - |
| 1777898314 | 10.56° C | 94% | 1030.8 hPa | 0 mm | - | 50 W/m² | - |
| 1777897112 | 10° C | 94% | 1030.4 hPa | 0 mm | - | 27 W/m² | - |
* Rain latest hour (hover to see other rain measurements)
** Current wind speed in m/s (hover to see current wind gust speed)